createdAt,value
2024-02-02T00:02:05.037Z,3.63
2024-02-02T00:04:31.720Z,2.25
2024-02-02T00:06:58.338Z,2.95
2024-02-02T00:09:24.991Z,2.65
2024-02-02T00:11:51.696Z,1.77
2024-02-02T00:14:18.521Z,3.30
2024-02-02T00:16:45.255Z,2.25
2024-02-02T00:19:11.927Z,2.00
2024-02-02T00:21:38.619Z,2.25
2024-02-02T00:24:05.473Z,2.33
2024-02-02T00:26:32.075Z,2.63
2024-02-02T00:28:58.636Z,3.22
2024-02-02T00:31:25.123Z,2.25
2024-02-02T00:33:52.035Z,3.22
2024-02-02T00:36:18.918Z,2.88
2024-02-02T00:38:45.449Z,2.70
2024-02-02T00:41:12.000Z,2.80
2024-02-02T00:43:38.711Z,3.88
2024-02-02T00:46:05.453Z,2.88
2024-02-02T00:48:32.442Z,3.22
2024-02-02T00:50:59.189Z,2.28
2024-02-02T00:53:25.757Z,2.83
2024-02-02T00:55:52.258Z,3.47
2024-02-02T00:58:18.848Z,3.15
2024-02-02T01:00:45.532Z,2.72
2024-02-02T01:03:12.308Z,4.35
2024-02-02T01:05:38.850Z,2.30
2024-02-02T01:08:06.646Z,2.47
2024-02-02T01:10:33.334Z,2.28
2024-02-02T01:12:59.973Z,2.88
2024-02-02T01:15:26.981Z,2.67
2024-02-02T01:17:54.050Z,2.67
2024-02-02T01:20:21.662Z,2.50
2024-02-02T01:22:49.202Z,2.50
2024-02-02T01:25:16.111Z,2.15
2024-02-02T01:27:43.174Z,2.92
2024-02-02T01:30:13.373Z,2.53
2024-02-02T01:32:40.419Z,2.78
2024-02-02T01:35:07.805Z,2.92
2024-02-02T01:37:34.974Z,3.35
2024-02-02T01:40:01.857Z,3.90
2024-02-02T01:42:28.512Z,2.78
2024-02-02T01:44:55.400Z,2.30
2024-02-02T01:47:22.197Z,2.97
2024-02-02T01:49:49.793Z,2.70
2024-02-02T01:52:16.621Z,2.28
2024-02-02T01:54:43.601Z,2.42
2024-02-02T01:57:10.389Z,2.55
2024-02-02T01:59:37.339Z,2.97
2024-02-02T02:02:04.782Z,3.58
2024-02-02T02:04:31.563Z,2.55
2024-02-02T02:06:58.582Z,2.67
2024-02-02T02:09:25.492Z,2.17
2024-02-02T02:11:52.908Z,2.45
2024-02-02T02:14:19.958Z,3.10
2024-02-02T02:16:46.721Z,2.63
2024-02-02T02:19:15.881Z,3.60
2024-02-02T02:21:42.919Z,4.22
2024-02-02T02:24:10.154Z,3.45
2024-02-02T02:26:37.209Z,2.95
2024-02-02T02:29:04.274Z,3.03
2024-02-02T02:31:30.767Z,3.80
2024-02-02T02:33:57.827Z,3.47
2024-02-02T02:36:25.113Z,4.25
2024-02-02T02:38:52.155Z,2.40
2024-02-02T02:41:18.833Z,3.88
2024-02-02T02:43:45.593Z,4.03
2024-02-02T02:46:12.801Z,4.20
2024-02-02T02:48:39.618Z,2.50
2024-02-02T02:51:06.536Z,3.78
2024-02-02T02:53:33.099Z,2.28
2024-02-02T02:55:59.654Z,3.28
2024-02-02T02:58:26.391Z,4.22
2024-02-02T03:00:54.702Z,3.60
2024-02-02T03:03:21.480Z,3.33
2024-02-02T03:05:48.499Z,3.42
2024-02-02T03:08:15.442Z,2.92
2024-02-02T03:10:43.127Z,3.45
2024-02-02T03:13:10.154Z,4.00
2024-02-02T03:15:37.173Z,3.20
2024-02-02T03:18:04.242Z,2.80
2024-02-02T03:20:31.283Z,3.45
2024-02-02T03:22:57.928Z,2.55
2024-02-02T03:25:24.703Z,4.65
2024-02-02T03:27:51.351Z,3.63
2024-02-02T03:30:18.020Z,3.35
2024-02-02T03:32:46.166Z,2.78
2024-02-02T03:35:13.513Z,3.67
2024-02-02T03:37:40.234Z,3.28
2024-02-02T03:40:07.290Z,2.97
2024-02-02T03:42:34.069Z,1.98
2024-02-02T03:45:00.743Z,2.75
2024-02-02T03:47:27.475Z,2.92
2024-02-02T03:49:54.232Z,2.42
2024-02-02T03:52:24.850Z,3.33
2024-02-02T03:54:52.100Z,2.65
2024-02-02T03:57:19.369Z,3.22
2024-02-02T03:59:46.214Z,3.33
2024-02-02T04:02:13.271Z,2.63
2024-02-02T04:04:40.623Z,2.58
2024-02-02T04:07:07.266Z,2.88
2024-02-02T04:09:34.144Z,2.63
2024-02-02T04:12:00.771Z,2.83
2024-02-02T04:14:27.518Z,3.38
2024-02-02T04:16:53.988Z,3.38
2024-02-02T04:19:23.614Z,2.60
2024-02-02T04:21:50.346Z,2.83
2024-02-02T04:24:18.143Z,2.40
2024-02-02T04:26:44.871Z,2.58
2024-02-02T04:29:12.114Z,3.50
2024-02-02T04:31:38.643Z,3.28
2024-02-02T04:34:05.425Z,2.28
2024-02-02T04:36:32.247Z,3.97
2024-02-02T04:38:59.006Z,2.80
2024-02-02T04:41:25.933Z,2.10
2024-02-02T04:43:52.496Z,3.03
2024-02-02T04:46:19.002Z,1.98
2024-02-02T04:48:45.671Z,1.70
2024-02-02T04:51:12.690Z,2.17
2024-02-02T04:53:39.342Z,2.13
2024-02-02T04:56:06.314Z,2.40
2024-02-02T04:58:32.834Z,2.28
2024-02-02T05:00:59.337Z,3.20
2024-02-02T05:03:26.014Z,2.03
2024-02-02T05:05:52.810Z,2.95
2024-02-02T05:08:19.735Z,2.22
2024-02-02T05:10:46.416Z,2.55
2024-02-02T05:13:13.069Z,1.30
2024-02-02T05:15:41.427Z,1.58
2024-02-02T05:18:08.452Z,2.17
2024-02-02T05:20:35.151Z,2.33
2024-02-02T05:23:01.599Z,2.50
2024-02-02T05:25:29.052Z,2.72
2024-02-02T05:27:55.641Z,3.05
2024-02-02T05:30:22.450Z,2.53
2024-02-02T05:32:49.074Z,1.88
2024-02-02T05:35:15.833Z,3.15
2024-02-02T05:37:42.360Z,2.30
2024-02-02T05:40:09.657Z,2.03
2024-02-02T05:42:36.246Z,1.83
2024-02-02T05:45:02.859Z,1.67
2024-02-02T05:47:29.534Z,2.33
2024-02-02T05:49:56.315Z,2.83
2024-02-02T05:52:22.985Z,1.65
2024-02-02T05:54:49.676Z,2.35
2024-02-02T05:57:16.806Z,2.28
2024-02-02T05:59:43.351Z,1.85
2024-02-02T06:02:09.867Z,2.05
2024-02-02T06:04:36.436Z,3.10
2024-02-02T06:07:03.228Z,1.35
2024-02-02T06:09:30.188Z,2.50
2024-02-02T06:11:56.970Z,1.48
2024-02-02T06:14:26.485Z,2.45
2024-02-02T06:16:53.040Z,1.63
2024-02-02T06:19:19.734Z,2.72
2024-02-02T06:21:46.544Z,2.90
2024-02-02T06:24:13.416Z,2.63
2024-02-02T06:26:40.000Z,2.42
2024-02-02T06:29:06.675Z,1.88
2024-02-02T06:31:33.612Z,2.38
2024-02-02T06:34:00.289Z,2.42
2024-02-02T06:36:29.524Z,2.08
2024-02-02T06:38:57.346Z,1.95
2024-02-02T06:41:24.326Z,2.58
2024-02-02T06:43:51.350Z,2.55
2024-02-02T06:46:17.988Z,3.60
2024-02-02T06:48:47.912Z,2.28
2024-02-02T06:51:14.831Z,3.40
2024-02-02T06:53:41.386Z,3.72
2024-02-02T06:56:44.141Z,2.53
2024-02-02T06:59:11.070Z,3.00
2024-02-02T07:01:38.297Z,3.22
2024-02-02T07:04:16.008Z,3.40
2024-02-02T07:06:43.116Z,2.53
2024-02-02T07:09:18.656Z,2.42
2024-02-02T07:11:59.397Z,2.70
2024-02-02T07:14:44.251Z,3.97
2024-02-02T07:17:34.960Z,2.63
2024-02-02T07:20:05.317Z,3.08
2024-02-02T07:22:39.795Z,2.83
2024-02-02T07:25:20.266Z,3.95
2024-02-02T07:27:52.754Z,3.13
2024-02-02T07:30:49.129Z,3.30
2024-02-02T07:33:24.927Z,3.60
2024-02-02T07:35:53.506Z,3.38
2024-02-02T07:40:59.429Z,4.00
2024-02-02T07:43:25.995Z,3.80
2024-02-02T07:45:52.528Z,2.15
2024-02-02T07:48:19.893Z,3.22
2024-02-02T07:50:46.526Z,3.65
2024-02-02T07:53:13.114Z,3.40
2024-02-02T07:55:40.929Z,3.95
2024-02-02T07:58:07.569Z,3.30
2024-02-02T08:00:34.561Z,3.85
2024-02-02T08:03:01.252Z,2.85
2024-02-02T08:05:29.289Z,2.90
2024-02-02T08:07:56.093Z,3.60
2024-02-02T08:10:22.667Z,3.35
2024-02-02T08:12:49.345Z,3.33
2024-02-02T08:15:15.959Z,3.25
2024-02-02T08:17:42.533Z,3.28
2024-02-02T08:20:09.557Z,2.95
2024-02-02T08:22:36.142Z,2.83
2024-02-02T08:25:02.807Z,4.30
2024-02-02T08:27:30.190Z,2.90
2024-02-02T08:29:57.111Z,2.97
2024-02-02T08:32:24.048Z,3.00
2024-02-02T08:34:50.671Z,3.22
2024-02-02T08:37:17.823Z,4.22
2024-02-02T08:39:45.495Z,3.92
2024-02-02T08:42:22.724Z,2.08
2024-02-02T08:44:52.900Z,3.63
2024-02-02T08:47:20.883Z,2.78
2024-02-02T08:49:49.245Z,3.30
2024-02-02T08:52:31.816Z,4.40
2024-02-02T08:54:59.053Z,3.10
2024-02-02T08:57:32.779Z,3.97
2024-02-02T09:00:06.515Z,3.03
2024-02-02T09:02:42.096Z,1.70
2024-02-02T09:05:18.922Z,2.53
2024-02-02T09:07:51.768Z,5.53
2024-02-02T09:10:44.784Z,3.60
2024-02-02T09:13:24.355Z,3.00
2024-02-02T09:15:51.120Z,2.22
2024-02-02T09:18:38.648Z,4.03
2024-02-02T09:21:06.775Z,4.35
2024-02-02T09:23:34.874Z,3.28
2024-02-02T09:26:04.994Z,4.75
2024-02-02T09:28:38.897Z,4.55
2024-02-02T09:31:08.006Z,4.50
2024-02-02T09:33:34.730Z,4.40
2024-02-02T09:36:04.310Z,3.90
2024-02-02T09:38:31.398Z,2.80
2024-02-02T09:41:30.708Z,4.28
2024-02-02T09:44:06.342Z,2.80
2024-02-02T09:46:45.444Z,2.67
2024-02-02T09:49:41.472Z,3.22
2024-02-02T09:52:42.218Z,4.47
2024-02-02T09:58:32.005Z,3.05
2024-02-02T10:01:07.262Z,2.72
2024-02-02T10:03:49.334Z,3.78
2024-02-02T10:06:41.194Z,4.13
2024-02-02T10:09:20.029Z,2.80
2024-02-02T10:12:13.947Z,3.38
2024-02-02T10:14:53.112Z,3.90
2024-02-02T10:17:59.131Z,2.25
2024-02-02T10:20:25.908Z,4.97
2024-02-02T10:23:06.876Z,4.78
2024-02-02T10:25:54.387Z,3.38
2024-02-02T10:28:53.104Z,5.47
2024-02-02T10:31:25.894Z,4.80
2024-02-02T10:34:40.209Z,4.32
2024-02-02T10:37:24.806Z,3.28
2024-02-02T10:40:03.986Z,4.35
2024-02-02T10:42:50.842Z,4.47
2024-02-02T10:45:38.173Z,4.40
2024-02-02T10:48:07.969Z,5.25
2024-02-02T10:50:44.421Z,1.98
2024-02-02T10:53:48.373Z,4.65
2024-02-02T10:56:38.879Z,4.13
2024-02-02T10:59:43.048Z,3.90
2024-02-02T11:02:15.298Z,3.33
2024-02-02T11:05:06.360Z,3.85
2024-02-02T11:07:35.360Z,3.28
2024-02-02T11:10:07.172Z,4.97
2024-02-02T11:13:21.580Z,5.63
2024-02-02T11:16:18.669Z,4.53
2024-02-02T11:19:08.173Z,4.35
2024-02-02T11:21:43.483Z,3.22
2024-02-02T11:24:19.244Z,3.75
2024-02-02T11:27:10.198Z,4.00
2024-02-02T11:30:02.607Z,3.83
2024-02-02T11:33:15.152Z,3.45
2024-02-02T11:36:07.021Z,3.83
2024-02-02T11:38:48.999Z,4.72
2024-02-02T11:41:19.421Z,5.35
2024-02-02T11:43:47.499Z,4.18
2024-02-02T11:46:15.360Z,4.45
2024-02-02T11:48:43.944Z,2.47
2024-02-02T11:51:11.727Z,5.90
2024-02-02T11:53:45.856Z,2.50
2024-02-02T11:56:39.004Z,4.82
2024-02-02T11:59:23.668Z,5.65
2024-02-02T12:02:21.992Z,4.78
2024-02-02T12:05:01.534Z,4.70
2024-02-02T12:08:04.833Z,3.30
2024-02-02T12:10:35.207Z,5.65
2024-02-02T12:13:07.813Z,4.28
2024-02-02T12:15:34.558Z,4.93
2024-02-02T12:18:03.658Z,4.85
2024-02-02T12:20:32.194Z,4.38
2024-02-02T12:22:59.508Z,5.30
2024-02-02T12:25:26.485Z,3.88
2024-02-02T12:27:53.473Z,4.93
2024-02-02T12:30:20.490Z,6.25
2024-02-02T12:32:58.120Z,3.60
2024-02-02T12:35:25.973Z,5.47
2024-02-02T12:37:53.751Z,3.65
2024-02-02T12:40:20.917Z,5.13
2024-02-02T12:42:51.514Z,3.67
2024-02-02T12:45:21.693Z,6.05
2024-02-02T12:47:49.983Z,4.63
2024-02-02T12:50:19.518Z,5.00
2024-02-02T12:52:48.132Z,5.40
2024-02-02T12:55:15.506Z,4.40
2024-02-02T12:57:43.030Z,7.13
2024-02-02T13:00:16.659Z,5.20
2024-02-02T13:02:46.571Z,5.40
2024-02-02T13:05:17.949Z,5.80
2024-02-02T13:07:49.329Z,5.35
2024-02-02T13:10:34.927Z,3.85
2024-02-02T13:13:30.704Z,5.40
2024-02-02T13:15:57.227Z,4.03
2024-02-02T13:18:26.184Z,3.58
2024-02-02T13:20:57.197Z,5.78
2024-02-02T13:23:31.281Z,5.15
2024-02-02T13:26:05.331Z,4.78
2024-02-02T13:28:40.261Z,3.15
2024-02-02T13:31:19.824Z,4.43
2024-02-02T13:33:58.914Z,3.78
2024-02-02T13:36:27.724Z,4.63
2024-02-02T13:38:56.292Z,4.22
2024-02-02T13:41:27.629Z,5.60
2024-02-02T13:43:58.614Z,4.28
2024-02-02T13:46:29.998Z,5.03
2024-02-02T13:49:01.381Z,5.00
2024-02-02T13:51:29.326Z,2.70
2024-02-02T13:53:56.294Z,3.80
2024-02-02T13:56:23.964Z,4.43
2024-02-02T13:58:50.936Z,4.50
2024-02-02T14:01:19.429Z,3.63
2024-02-02T14:03:47.206Z,4.07
2024-02-02T14:06:15.139Z,4.43
2024-02-02T14:08:47.362Z,3.30
2024-02-02T14:11:24.535Z,2.63
2024-02-02T14:13:55.296Z,5.00
2024-02-02T14:16:23.830Z,4.13
2024-02-02T14:19:03.886Z,4.55
2024-02-02T14:21:32.899Z,3.92
2024-02-02T14:24:18.500Z,4.10
2024-02-02T14:26:55.042Z,2.92
2024-02-02T14:29:23.531Z,4.35
2024-02-02T14:31:57.167Z,4.25
2024-02-02T14:34:25.351Z,4.30
2024-02-02T14:36:53.056Z,4.35
2024-02-02T14:39:27.193Z,4.30
2024-02-02T14:41:55.754Z,3.20
2024-02-02T14:46:50.214Z,3.80
2024-02-02T14:49:17.559Z,5.57
2024-02-02T14:51:44.365Z,3.80
2024-02-02T14:54:10.967Z,2.08
2024-02-02T14:56:38.296Z,4.53
2024-02-02T14:59:16.161Z,5.05
2024-02-02T15:01:43.695Z,4.60
2024-02-02T15:04:10.458Z,4.43
2024-02-02T15:06:38.353Z,5.38
2024-02-02T15:09:14.988Z,4.47
2024-02-02T15:11:42.955Z,4.13
2024-02-02T15:14:10.280Z,4.32
2024-02-02T15:16:37.338Z,5.47
2024-02-02T15:19:05.186Z,4.95
2024-02-02T15:21:32.680Z,5.72
2024-02-02T15:23:59.634Z,5.05
2024-02-02T15:26:26.537Z,4.63
2024-02-02T15:28:53.103Z,6.25
2024-02-02T15:31:19.809Z,3.45
2024-02-02T15:33:46.775Z,4.88
2024-02-02T15:36:14.142Z,5.28
2024-02-02T15:38:59.445Z,3.17
2024-02-02T15:41:27.229Z,5.88
2024-02-02T15:43:55.625Z,5.72
2024-02-02T15:46:22.367Z,5.65
2024-02-02T15:48:50.966Z,4.82
2024-02-02T15:51:18.595Z,5.63
2024-02-02T15:53:46.077Z,5.70
2024-02-02T15:56:16.775Z,8.00
2024-02-02T15:58:43.798Z,5.28
2024-02-02T16:01:10.372Z,7.18
2024-02-02T16:03:37.472Z,5.60
2024-02-02T16:06:06.228Z,7.35
2024-02-02T16:08:32.897Z,4.22
2024-02-02T16:10:59.562Z,7.10
2024-02-02T16:13:26.121Z,6.00
2024-02-02T16:15:52.692Z,5.30
2024-02-02T16:18:19.294Z,6.43
2024-02-02T16:20:45.977Z,5.63
2024-02-02T16:23:12.482Z,6.22
2024-02-02T16:25:39.141Z,5.32
2024-02-02T16:28:05.793Z,5.05
2024-02-02T16:30:32.840Z,4.85
2024-02-02T16:33:02.291Z,6.72
2024-02-02T16:35:29.951Z,6.40
2024-02-02T16:37:56.508Z,7.03
2024-02-02T16:40:23.158Z,6.28
2024-02-02T16:42:49.727Z,8.02
2024-02-02T16:45:17.982Z,7.40
2024-02-02T16:50:11.825Z,8.50
2024-02-02T16:52:38.476Z,8.10
2024-02-02T16:55:05.367Z,6.32
2024-02-02T16:57:32.066Z,8.07
2024-02-02T16:59:58.688Z,6.50
2024-02-02T17:02:25.326Z,9.10
2024-02-02T17:04:52.024Z,8.52
2024-02-02T17:07:19.556Z,9.00
2024-02-02T17:09:46.459Z,10.55
2024-02-02T17:12:15.813Z,9.88
2024-02-02T17:14:42.583Z,9.45
2024-02-02T17:17:09.195Z,6.45
2024-02-02T17:19:35.893Z,8.90
2024-02-02T17:22:02.480Z,9.32
2024-02-02T17:24:29.328Z,8.05
2024-02-02T17:26:55.937Z,8.35
2024-02-02T17:29:22.410Z,9.88
2024-02-02T17:31:49.048Z,8.02
2024-02-02T17:34:16.264Z,8.60
2024-02-02T17:36:43.243Z,9.13
2024-02-02T17:39:10.021Z,7.68
2024-02-02T17:41:36.807Z,9.25
2024-02-02T17:44:03.495Z,8.48
2024-02-02T17:46:30.394Z,8.40
2024-02-02T17:48:57.047Z,10.40
2024-02-02T17:51:24.455Z,8.20
2024-02-02T17:53:51.028Z,8.40
2024-02-02T17:56:18.489Z,12.93
2024-02-02T17:58:45.097Z,7.82
2024-02-02T18:01:11.974Z,9.90
2024-02-02T18:03:38.736Z,8.70
2024-02-02T18:06:05.992Z,10.02
2024-02-02T18:08:32.762Z,9.98
2024-02-02T18:11:01.262Z,11.30
2024-02-02T18:13:28.479Z,5.70
2024-02-02T18:15:55.315Z,9.90
2024-02-02T18:18:23.558Z,9.93
2024-02-02T18:23:16.719Z,10.55
2024-02-02T18:25:43.358Z,12.43
2024-02-02T18:28:14.050Z,11.60
2024-02-02T18:30:42.260Z,12.75
2024-02-02T18:33:09.194Z,10.30
2024-02-02T18:35:36.310Z,9.10
2024-02-02T18:38:03.372Z,9.18
2024-02-02T18:40:30.012Z,5.18
2024-02-02T18:42:56.889Z,10.05
2024-02-02T18:45:23.568Z,8.00
2024-02-02T18:47:50.366Z,9.15
2024-02-02T18:50:17.502Z,8.82
2024-02-02T18:52:44.229Z,9.27
2024-02-02T18:55:10.832Z,9.32
2024-02-02T18:57:37.411Z,6.93
2024-02-02T19:00:04.776Z,7.38
2024-02-02T19:02:31.317Z,4.20
2024-02-02T19:04:58.030Z,7.82
2024-02-02T19:07:26.747Z,8.63
2024-02-02T19:09:53.820Z,6.50
2024-02-02T19:12:20.605Z,13.10
2024-02-02T19:14:47.327Z,8.68
2024-02-02T19:17:13.897Z,5.82
2024-02-02T19:19:40.821Z,6.55
2024-02-02T19:22:07.518Z,5.93
2024-02-02T19:24:34.137Z,7.03
2024-02-02T19:27:00.809Z,8.65
2024-02-02T19:29:27.519Z,8.38
2024-02-02T19:31:54.073Z,8.65
2024-02-02T19:34:20.715Z,5.75
2024-02-02T19:36:47.443Z,7.32
2024-02-02T19:39:14.103Z,8.68
2024-02-02T19:41:40.626Z,7.03
2024-02-02T19:44:07.275Z,9.80
2024-02-02T19:46:34.742Z,9.18
2024-02-02T19:49:03.415Z,9.02
2024-02-02T19:51:30.757Z,9.55
2024-02-02T19:53:57.467Z,9.13
2024-02-02T19:56:24.289Z,5.40
2024-02-02T19:58:51.617Z,5.03
2024-02-02T20:01:22.464Z,7.88
2024-02-02T20:03:50.661Z,8.00
2024-02-02T20:06:20.860Z,9.73
2024-02-02T20:08:48.953Z,11.52
2024-02-02T20:11:16.793Z,9.57
2024-02-02T20:13:44.252Z,9.43
2024-02-02T20:16:14.212Z,10.05
2024-02-02T20:18:41.060Z,10.25
2024-02-02T20:21:07.714Z,11.00
2024-02-02T20:23:35.637Z,10.98
2024-02-02T20:26:05.198Z,5.40
2024-02-02T20:28:31.943Z,10.98
2024-02-02T20:30:58.648Z,10.07
2024-02-02T20:33:26.033Z,4.90
2024-02-02T20:35:52.798Z,7.38
2024-02-02T20:38:19.393Z,9.93
2024-02-02T20:40:45.893Z,9.48
2024-02-02T20:43:12.724Z,7.72
2024-02-02T20:45:39.329Z,9.77
2024-02-02T20:48:06.319Z,8.32
2024-02-02T20:50:33.261Z,7.70
2024-02-02T20:52:59.793Z,7.35
2024-02-02T20:55:26.335Z,5.35
2024-02-02T20:57:52.919Z,8.48
2024-02-02T21:00:19.977Z,8.43
2024-02-02T21:02:46.703Z,5.60
2024-02-02T21:05:13.481Z,8.73
2024-02-02T21:07:40.362Z,8.55
2024-02-02T21:10:07.797Z,7.28
2024-02-02T21:12:35.004Z,7.47
2024-02-02T21:15:01.875Z,7.75
2024-02-02T21:17:29.469Z,7.75
2024-02-02T21:19:57.982Z,7.10
2024-02-02T21:22:25.411Z,9.23
2024-02-02T21:24:52.140Z,6.07
2024-02-02T21:27:18.689Z,7.30
2024-02-02T21:29:45.172Z,7.65
2024-02-02T21:32:11.771Z,7.57
2024-02-02T21:34:38.621Z,6.38
2024-02-02T21:37:05.274Z,7.72
2024-02-02T21:39:31.873Z,4.43
2024-02-02T21:41:58.501Z,5.13
2024-02-02T21:44:25.185Z,8.50
2024-02-02T21:46:51.972Z,6.85
2024-02-02T21:49:18.791Z,8.35
2024-02-02T21:51:45.687Z,7.18
2024-02-02T21:54:13.296Z,7.93
2024-02-02T21:56:43.638Z,4.32
2024-02-02T21:59:10.464Z,8.73
2024-02-02T22:01:39.262Z,7.72
2024-02-02T22:04:06.181Z,5.47
2024-02-02T22:06:33.445Z,8.00
2024-02-02T22:09:02.118Z,8.75
2024-02-02T22:11:28.684Z,7.07
2024-02-02T22:13:55.234Z,8.25
2024-02-02T22:16:21.782Z,8.60
2024-02-02T22:18:50.133Z,9.75
2024-02-02T22:21:22.098Z,7.72
2024-02-02T22:23:48.719Z,8.13
2024-02-02T22:26:18.634Z,9.30
2024-02-02T22:28:45.519Z,9.02
2024-02-02T22:31:22.197Z,8.23
2024-02-02T22:33:50.304Z,7.97
2024-02-02T22:36:21.993Z,9.80
2024-02-02T22:38:51.215Z,9.52
2024-02-02T22:41:32.020Z,8.70
2024-02-02T22:44:00.812Z,8.77
2024-02-02T22:46:30.631Z,6.45
2024-02-02T22:48:57.274Z,6.88
2024-02-02T22:51:24.067Z,4.93
2024-02-02T22:53:50.964Z,8.40
2024-02-02T22:56:17.524Z,8.05
2024-02-02T22:58:44.080Z,5.72
2024-02-02T23:01:10.890Z,4.95
2024-02-02T23:03:37.998Z,7.57
2024-02-02T23:06:05.396Z,7.57
2024-02-02T23:08:32.166Z,4.10
2024-02-02T23:10:58.989Z,6.95
2024-02-02T23:13:26.261Z,7.38
2024-02-02T23:15:57.226Z,6.22
2024-02-02T23:18:25.139Z,6.82
2024-02-02T23:20:53.495Z,3.97
2024-02-02T23:23:20.237Z,6.38
2024-02-02T23:25:47.106Z,4.43
2024-02-02T23:28:13.910Z,4.93
2024-02-02T23:30:41.074Z,3.88
2024-02-02T23:33:08.371Z,4.72
2024-02-02T23:35:35.126Z,5.03
2024-02-02T23:38:01.743Z,6.88
2024-02-02T23:40:28.766Z,4.82
2024-02-02T23:42:55.353Z,6.68
2024-02-02T23:45:22.075Z,6.45
2024-02-02T23:47:48.707Z,3.30
2024-02-02T23:50:15.596Z,5.45
2024-02-02T23:52:42.205Z,4.13
2024-02-02T23:55:09.053Z,6.47
2024-02-02T23:57:35.831Z,5.68
